Time;durP1;ratioP1;P1;durP2;ratioP2;P2;SDS_P1;SDS_P2;PMS_P1;PMS_P2;Temp;Humidity;BMP_temperature;BMP_pressure;BME280_temperature;BME280_humidity;BME280_pressure;Samples;Min_cycle;Max_cycle;Signal;HPM_P1;HPM_P2
2023/07/03 00:00:42;;;;;;;19.23;5.07;;;17.40;99.90;;;;;;4897909;29;20108;-73
2023/07/03 00:03:13;;;;;;;17.98;4.43;;;17.40;99.90;;;;;;4898048;29;20061;-74
2023/07/03 00:05:42;;;;;;;23.55;5.10;;;17.40;99.90;;;;;;4897828;29;20768;-73
2023/07/03 00:08:08;;;;;;;16.25;4.90;;;17.40;99.90;;;;;;4865317;29;20044;-74
2023/07/03 00:10:33;;;;;;;18.27;5.10;;;17.40;99.90;;;;;;4897598;29;20075;-73
2023/07/03 00:12:59;;;;;;;15.70;5.15;;;17.40;99.90;;;;;;4897456;29;20048;-74
2023/07/03 00:15:25;;;;;;;12.50;4.50;;;17.40;99.90;;;;;;4897444;29;20518;-74
2023/07/03 00:17:50;;;;;;;19.65;5.97;;;17.30;99.90;;;;;;4897663;29;20453;-74
2023/07/03 00:20:16;;;;;;;16.25;4.75;;;17.30;99.90;;;;;;4880492;29;20063;-74
2023/07/03 00:22:43;;;;;;;14.35;4.82;;;17.30;99.90;;;;;;4897234;29;20045;-74
2023/07/03 00:25:09;;;;;;;18.00;4.50;;;17.30;99.90;;;;;;4897412;29;20123;-73
2023/07/03 00:27:34;;;;;;;15.93;4.72;;;17.30;99.90;;;;;;4897381;29;20048;-73
2023/07/03 00:30:00;;;;;;;16.55;4.32;;;17.30;99.90;;;;;;4896888;29;20520;-73
2023/07/03 00:32:28;;;;;;;17.10;4.35;;;17.30;99.90;;;;;;4880302;29;20089;-74
2023/07/03 00:34:54;;;;;;;17.98;4.72;;;17.30;99.90;;;;;;4880197;29;20068;-74
2023/07/03 00:37:21;;;;;;;14.20;4.43;;;17.20;99.90;;;;;;4896792;29;20500;-74
2023/07/03 00:39:47;;;;;;;17.77;4.85;;;17.20;99.90;;;;;;4880147;29;20060;-73
2023/07/03 00:42:13;;;;;;;13.55;4.88;;;17.10;99.90;;;;;;4896851;29;20044;-73
2023/07/03 00:44:38;;;;;;;13.05;4.85;;;17.20;99.90;;;;;;4879550;29;20078;-73
2023/07/03 00:47:05;;;;;;;13.60;5.03;;;17.20;99.90;;;;;;4880086;29;20386;-73
2023/07/03 00:49:32;;;;;;;22.10;5.00;;;17.20;99.90;;;;;;4897220;29;20055;-73
2023/07/03 00:51:59;;;;;;;15.70;4.57;;;17.10;99.90;;;;;;4880090;29;20501;-74
2023/07/03 00:54:25;;;;;;;12.13;4.88;;;17.10;99.90;;;;;;4896446;29;20120;-73
2023/07/03 00:56:50;;;;;;;17.95;5.13;;;17.10;99.90;;;;;;4897048;29;20056;-73
2023/07/03 00:59:17;;;;;;;17.35;4.95;;;17.10;99.90;;;;;;4878923;29;20057;-73
2023/07/03 01:01:56;;;;;;;20.98;5.45;;;17.10;99.90;;;;;;4879824;29;20127;-73
2023/07/03 01:04:30;;;;;;;17.30;4.40;;;17.10;99.90;;;;;;4879859;29;20049;-74
2023/07/03 01:07:06;;;;;;;16.40;4.85;;;17.10;99.90;;;;;;4896628;29;20148;-73
2023/07/03 01:09:37;;;;;;;16.35;4.55;;;17.10;99.90;;;;;;4896623;29;20056;-73
2023/07/03 01:12:04;;;;;;;18.05;5.13;;;17.10;99.90;;;;;;4896177;29;20460;-73
2023/07/03 01:14:31;;;;;;;18.85;4.63;;;17.10;99.90;;;;;;4864051;29;20068;-74
2023/07/03 01:16:58;;;;;;;20.77;5.22;;;17.10;99.90;;;;;;4879828;29;20472;-74
2023/07/03 01:19:31;;;;;;;15.75;5.03;;;17.00;99.90;;;;;;4896715;29;20145;-73
2023/07/03 01:22:20;;;;;;;16.85;3.97;;;17.00;99.90;;;;;;4879859;29;20056;-73
2023/07/03 01:25:01;;;;;;;18.45;4.97;;;17.00;99.90;;;;;;4895962;29;20063;-74
2023/07/03 01:27:31;;;;;;;20.65;5.00;;;17.00;99.90;;;;;;4896018;29;20519;-74
2023/07/03 01:29:58;;;;;;;21.20;4.43;;;17.10;99.90;;;;;;4879416;29;20063;-74
2023/07/03 01:32:29;;;;;;;21.02;4.65;;;17.00;99.90;;;;;;4896147;29;20056;-74
2023/07/03 01:34:56;;;;;;;15.98;4.88;;;17.00;99.90;;;;;;4879500;29;20060;-73
2023/07/03 01:37:27;;;;;;;22.73;5.03;;;17.00;99.90;;;;;;4896165;29;20088;-74
2023/07/03 01:39:55;;;;;;;19.25;5.32;;;17.00;99.90;;;;;;4896373;29;20056;-74
2023/07/03 01:42:22;;;;;;;13.52;4.45;;;17.00;99.90;;;;;;4878822;29;20128;-74
2023/07/03 01:44:48;;;;;;;19.50;5.28;;;17.10;99.90;;;;;;4879761;29;20060;-74
2023/07/03 01:47:15;;;;;;;22.23;4.40;;;17.10;99.90;;;;;;4879483;29;20065;-74
2023/07/03 01:49:40;;;;;;;19.38;4.93;;;17.00;99.90;;;;;;4896202;29;20048;-73
2023/07/03 01:52:18;;;;;;;18.98;4.72;;;17.00;99.90;;;;;;4896260;29;20568;-73
2023/07/03 01:54:50;;;;;;;15.07;4.68;;;17.10;99.90;;;;;;4895967;29;20064;-74
2023/07/03 01:57:31;;;;;;;18.03;4.73;;;17.00;99.90;;;;;;4895696;29;20052;-74
2023/07/03 02:00:00;;;;;;;23.67;4.93;;;17.00;99.90;;;;;;4896111;29;20285;-74
2023/07/03 02:02:29;;;;;;;18.08;4.78;;;17.00;99.90;;;;;;4879103;29;20057;-73
2023/07/03 02:05:12;;;;;;;20.75;4.65;;;17.00;99.90;;;;;;4879285;29;20053;-74
2023/07/03 02:07:40;;;;;;;15.73;4.47;;;17.10;99.90;;;;;;4896015;29;20060;-73
2023/07/03 02:10:06;;;;;;;12.07;3.78;;;17.00;99.90;;;;;;4896143;29;20056;-74
2023/07/03 02:12:32;;;;;;;19.25;4.60;;;17.10;99.90;;;;;;4899654;29;20140;-74
2023/07/03 02:15:02;;;;;;;16.98;4.43;;;17.00;99.90;;;;;;4867271;29;20048;-72
2023/07/03 02:17:28;;;;;;;17.55;4.43;;;17.00;99.90;;;;;;4899769;29;20526;-73
2023/07/03 02:19:54;;;;;;;23.05;4.43;;;17.00;99.90;;;;;;4882729;29;20168;-74
2023/07/03 02:22:20;;;;;;;20.13;4.72;;;17.00;99.90;;;;;;4899470;29;20049;-74
2023/07/03 02:24:46;;;;;;;15.95;5.00;;;17.00;99.90;;;;;;4899479;29;20053;-74
2023/07/03 02:27:12;;;;;;;19.15;4.43;;;17.00;99.90;;;;;;4882668;29;20064;-74
2023/07/03 02:29:38;;;;;;;16.50;4.28;;;16.90;99.90;;;;;;4882513;29;20497;-74
2023/07/03 02:32:09;;;;;;;25.23;4.95;;;16.90;99.90;;;;;;4899354;29;20052;-74
2023/07/03 02:34:35;;;;;;;21.73;4.97;;;17.00;99.90;;;;;;4899190;29;20048;-73
2023/07/03 02:37:01;;;;;;;19.92;4.68;;;16.90;99.90;;;;;;4899557;29;20393;-74
2023/07/03 02:39:26;;;;;;;21.45;4.72;;;17.00;99.90;;;;;;4882526;29;20049;-74
2023/07/03 02:41:52;;;;;;;24.27;4.82;;;17.00;99.90;;;;;;4875854;29;20056;-73
2023/07/03 02:44:18;;;;;;;17.42;4.78;;;17.00;99.90;;;;;;4860942;29;20060;-74
2023/07/03 02:46:44;;;;;;;21.77;4.43;;;16.90;99.90;;;;;;4860698;29;20098;-72
2023/07/03 02:49:10;;;;;;;26.15;4.65;;;17.00;99.90;;;;;;4861386;29;20062;-74
2023/07/03 02:51:35;;;;;;;19.20;4.35;;;16.90;99.90;;;;;;4860781;29;20049;-74
2023/07/03 02:54:04;;;;;;;23.60;4.10;;;17.00;99.90;;;;;;4861798;29;20450;-74
2023/07/03 02:56:29;;;;;;;21.60;4.32;;;16.90;99.90;;;;;;4861868;29;20049;-74
2023/07/03 02:58:55;;;;;;;20.98;4.05;;;16.90;99.90;;;;;;4860325;29;20430;-74
2023/07/03 03:01:21;;;;;;;13.00;4.00;;;16.90;99.90;;;;;;4860021;29;20057;-73
2023/07/03 03:03:47;;;;;;;20.05;4.45;;;16.80;99.90;;;;;;4860478;29;20103;-74
2023/07/03 03:06:13;;;;;;;20.65;4.38;;;16.80;99.90;;;;;;4844666;29;20156;-73
2023/07/03 03:08:39;;;;;;;20.95;4.43;;;16.80;99.90;;;;;;4861294;29;20057;-74
2023/07/03 03:11:05;;;;;;;17.13;4.13;;;16.80;99.90;;;;;;4860038;29;20054;-74
2023/07/03 03:13:30;;;;;;;29.23;4.88;;;16.80;99.90;;;;;;4859523;29;20115;-74
2023/07/03 03:15:56;;;;;;;22.85;4.18;;;16.70;99.90;;;;;;4844545;29;20136;-73
2023/07/03 03:18:22;;;;;;;18.52;4.50;;;16.70;99.90;;;;;;4859939;29;20052;-73
2023/07/03 03:20:47;;;;;;;25.52;5.38;;;16.70;99.90;;;;;;4859663;29;20076;-73
2023/07/03 03:23:13;;;;;;;18.48;4.60;;;16.70;99.90;;;;;;4859040;29;20065;-73
2023/07/03 03:25:39;;;;;;;17.60;4.28;;;16.70;99.90;;;;;;4859899;29;20089;-74
2023/07/03 03:28:06;;;;;;;18.42;4.13;;;16.70;99.90;;;;;;4859773;29;20061;-74
2023/07/03 03:30:32;;;;;;;21.02;4.00;;;16.70;99.90;;;;;;4860908;29;20634;-73
2023/07/03 03:32:58;;;;;;;17.60;4.07;;;16.60;99.90;;;;;;4859533;29;20144;-74
2023/07/03 03:35:24;;;;;;;16.52;3.70;;;16.60;99.90;;;;;;4859666;29;20062;-74
2023/07/03 03:37:50;;;;;;;14.57;4.00;;;16.60;99.90;;;;;;4859169;29;20060;-74
2023/07/03 03:40:15;;;;;;;16.45;4.82;;;16.50;99.90;;;;;;4860607;29;20046;-74
2023/07/03 03:42:41;;;;;;;15.43;4.40;;;16.50;99.90;;;;;;4879513;29;20071;-73
2023/07/03 03:45:07;;;;;;;19.98;4.35;;;16.50;99.90;;;;;;4897877;29;20060;-73
2023/07/03 03:47:33;;;;;;;21.17;4.28;;;16.50;99.90;;;;;;4881194;29;20053;-74
2023/07/03 03:49:59;;;;;;;16.80;4.50;;;16.50;99.90;;;;;;4881073;29;20088;-74
2023/07/03 03:52:25;;;;;;;24.15;4.82;;;16.50;99.90;;;;;;4897597;29;20052;-74
2023/07/03 03:54:50;;;;;;;17.95;3.83;;;16.40;99.90;;;;;;4897735;29;20056;-74
2023/07/03 03:57:16;;;;;;;13.25;3.95;;;16.40;99.90;;;;;;4897735;29;20052;-74
2023/07/03 03:59:42;;;;;;;15.98;3.90;;;16.40;99.90;;;;;;4897829;29;20049;-73
2023/07/03 04:02:08;;;;;;;18.15;4.00;;;16.40;99.90;;;;;;4897657;29;20060;-74
2023/07/03 04:04:34;;;;;;;18.42;4.13;;;16.30;99.90;;;;;;4897695;29;20488;-74
2023/07/03 04:07:01;;;;;;;23.02;4.50;;;16.40;99.90;;;;;;4880579;29;20148;-74
2023/07/03 04:09:27;;;;;;;16.73;4.63;;;16.30;99.90;;;;;;4880756;29;20164;-73
2023/07/03 04:11:53;;;;;;;20.20;4.03;;;16.30;99.90;;;;;;4897196;29;20655;-74
2023/07/03 04:14:18;;;;;;;16.08;3.75;;;16.30;99.90;;;;;;4893472;29;20051;-73
2023/07/03 04:16:45;;;;;;;16.55;4.10;;;16.40;99.90;;;;;;4878373;29;20057;-73
2023/07/03 04:19:11;;;;;;;14.63;3.83;;;16.40;99.90;;;;;;4880967;29;20048;-74
2023/07/03 04:21:38;;;;;;;14.30;4.40;;;16.50;99.90;;;;;;4862117;29;20137;-74
2023/07/03 04:24:05;;;;;;;11.68;4.18;;;16.50;99.90;;;;;;4878900;29;20060;-74
2023/07/03 04:26:31;;;;;;;18.20;4.00;;;16.60;99.90;;;;;;4862227;29;20069;-74
2023/07/03 04:28:58;;;;;;;25.13;4.35;;;16.60;99.90;;;;;;4878615;29;20064;-73
2023/07/03 04:31:24;;;;;;;18.67;4.15;;;16.50;99.90;;;;;;4861879;29;20134;-74
2023/07/03 04:33:49;;;;;;;15.48;3.90;;;16.70;99.90;;;;;;4861560;29;20080;-74
2023/07/03 04:36:20;;;;;;;17.42;4.28;;;16.60;99.90;;;;;;4878645;29;20088;-74
2023/07/03 04:38:46;;;;;;;16.60;3.60;;;16.70;99.90;;;;;;4861964;29;20057;-74
2023/07/03 04:41:12;;;;;;;16.30;4.03;;;16.80;99.90;;;;;;4878429;29;20127;-73
2023/07/03 04:43:44;;;;;;;11.05;3.70;;;16.90;99.90;;;;;;4878207;29;20133;-73
2023/07/03 04:46:11;;;;;;;10.35;3.45;;;17.00;99.90;;;;;;4878300;29;20132;-73
2023/07/03 04:48:37;;;;;;;13.48;3.60;;;17.00;99.90;;;;;;4878038;29;20057;-73
2023/07/03 04:51:03;;;;;;;15.82;3.53;;;17.20;99.90;;;;;;4861112;29;20056;-73
2023/07/03 04:53:31;;;;;;;14.02;4.53;;;17.20;99.90;;;;;;4877960;29;20382;-73
2023/07/03 04:55:57;;;;;;;15.73;3.92;;;17.30;99.90;;;;;;4860954;29;20056;-72
2023/07/03 04:58:23;;;;;;;13.20;3.38;;;17.40;99.90;;;;;;4878138;29;20045;-73
2023/07/03 05:00:49;;;;;;;11.68;3.38;;;17.40;99.90;;;;;;4877741;29;20053;-73
2023/07/03 05:03:15;;;;;;;12.50;3.65;;;17.50;99.90;;;;;;4877811;29;20061;-73
2023/07/03 05:05:41;;;;;;;12.50;3.35;;;17.60;99.90;;;;;;4877461;29;20149;-72
2023/07/03 05:08:06;;;;;;;10.02;3.15;;;17.60;99.90;;;;;;4877644;29;20205;-73
2023/07/03 05:10:32;;;;;;;11.00;3.05;;;17.70;99.90;;;;;;4860863;29;20057;-73
2023/07/03 05:12:58;;;;;;;12.32;2.95;;;17.70;99.90;;;;;;4860936;29;20132;-73
2023/07/03 05:15:25;;;;;;;13.13;3.88;;;17.70;99.90;;;;;;4861017;29;20513;-73
2023/07/03 05:17:52;;;;;;;17.23;3.50;;;17.70;99.90;;;;;;4869904;29;20709;-73
2023/07/03 05:20:19;;;;;;;12.73;3.35;;;17.70;99.90;;;;;;4898077;29;20044;-73
2023/07/03 05:22:45;;;;;;;10.77;3.20;;;17.70;99.90;;;;;;4915068;29;20166;-73
2023/07/03 05:25:13;;;;;;;11.18;2.75;;;17.80;99.90;;;;;;4897985;29;20064;-73
2023/07/03 05:27:39;;;;;;;11.18;3.00;;;17.80;99.90;;;;;;4915273;29;20083;-74
2023/07/03 05:30:07;;;;;;;13.45;3.03;;;17.90;99.90;;;;;;4915180;29;20048;-74
2023/07/03 05:32:33;;;;;;;14.32;3.45;;;18.00;99.90;;;;;;4898177;29;20060;-73
2023/07/03 05:35:00;;;;;;;10.65;3.33;;;18.20;99.90;;;;;;4899869;29;20044;-74
2023/07/03 05:37:25;;;;;;;9.68;2.60;;;18.40;99.90;;;;;;4896133;29;20401;-74
2023/07/03 05:39:51;;;;;;;11.45;2.50;;;18.30;99.90;;;;;;4863678;29;20048;-73
2023/07/03 05:42:18;;;;;;;14.02;3.33;;;18.40;99.90;;;;;;4879382;29;20049;-74
2023/07/03 05:44:44;;;;;;;9.68;2.70;;;18.40;99.90;;;;;;4879279;29;20052;-74
2023/07/03 05:47:11;;;;;;;16.73;3.53;;;18.50;99.90;;;;;;4899799;29;20052;-74
2023/07/03 05:49:37;;;;;;;12.23;2.85;;;18.70;99.90;;;;;;4883213;29;20052;-74
2023/07/03 05:52:02;;;;;;;10.63;2.78;;;18.70;99.90;;;;;;4883134;29;20139;-73
2023/07/03 05:54:28;;;;;;;16.65;3.33;;;18.70;99.90;;;;;;4882827;29;20049;-74
2023/07/03 05:57:04;;;;;;;17.58;3.47;;;18.70;99.90;;;;;;4899712;29;20437;-73
2023/07/03 05:59:31;;;;;;;13.23;3.63;;;18.90;99.90;;;;;;4882950;29;20554;-74
2023/07/03 06:01:57;;;;;;;12.30;2.53;;;18.90;99.90;;;;;;4899829;29;20060;-74
2023/07/03 06:04:24;;;;;;;11.18;2.53;;;18.80;99.90;;;;;;4900045;29;20403;-73
2023/07/03 06:06:52;;;;;;;9.63;2.42;;;18.90;99.90;;;;;;4882712;29;20804;-74
2023/07/03 06:09:18;;;;;;;8.98;2.53;;;19.00;99.90;;;;;;4882957;29;20084;-74
2023/07/03 06:11:45;;;;;;;9.95;2.80;;;19.00;99.90;;;;;;4882990;29;20075;-75
2023/07/03 06:14:15;;;;;;;8.75;2.30;;;19.00;99.90;;;;;;4899617;29;20141;-75
2023/07/03 06:16:45;;;;;;;9.65;2.20;;;19.10;99.90;;;;;;4882862;29;20424;-75
2023/07/03 06:19:12;;;;;;;9.65;2.33;;;19.30;99.90;;;;;;4883252;29;20136;-75
2023/07/03 06:21:38;;;;;;;7.82;2.03;;;19.30;99.90;;;;;;4882908;29;20138;-75
2023/07/03 06:24:05;;;;;;;8.73;2.42;;;19.30;99.90;;;;;;4899850;29;20127;-75
2023/07/03 06:26:33;;;;;;;9.82;2.22;;;19.20;99.90;;;;;;4901430;29;20055;-75
2023/07/03 06:28:59;;;;;;;12.38;2.22;;;19.10;99.90;;;;;;4906874;29;20105;-75
2023/07/03 06:31:26;;;;;;;13.27;2.13;;;19.00;99.90;;;;;;4903629;29;20456;-74
2023/07/03 06:33:52;;;;;;;9.32;2.33;;;18.80;99.90;;;;;;4886100;29;20088;-74
2023/07/03 06:36:21;;;;;;;13.57;2.35;;;18.80;99.90;;;;;;4913062;29;20139;-74
2023/07/03 06:38:58;;;;;;;7.55;1.90;;;19.00;99.90;;;;;;4906054;29;20055;-74
2023/07/03 06:41:27;;;;;;;8.88;1.70;;;18.90;99.90;;;;;;4885753;29;20531;-73
2023/07/03 06:43:55;;;;;;;11.63;1.73;;;18.90;99.90;;;;;;4866438;29;20061;-73
2023/07/03 06:46:21;;;;;;;7.43;1.73;;;19.00;99.90;;;;;;4860158;29;20117;-73
2023/07/03 06:48:46;;;;;;;9.80;2.35;;;19.10;99.90;;;;;;4860373;29;20524;-74
2023/07/03 06:51:14;;;;;;;6.35;1.45;;;19.10;99.90;;;;;;4860759;29;20053;-74
2023/07/03 06:53:40;;;;;;;6.10;1.77;;;19.10;99.90;;;;;;4860655;29;20080;-74
2023/07/03 06:56:07;;;;;;;10.38;1.90;;;19.10;99.90;;;;;;4861680;29;20061;-74
2023/07/03 06:58:33;;;;;;;11.77;1.88;;;19.20;99.90;;;;;;4861627;29;20106;-74
2023/07/03 07:01:11;;;;;;;6.40;1.60;;;19.30;99.90;;;;;;4860050;29;20054;-73
2023/07/03 07:03:38;;;;;;;11.00;1.77;;;19.30;99.90;;;;;;4861706;29;20053;-74
2023/07/03 07:06:09;;;;;;;5.63;2.13;;;19.30;99.90;;;;;;4860182;29;20061;-73
2023/07/03 07:08:35;;;;;;;9.95;1.67;;;19.20;99.90;;;;;;4860077;29;20073;-74
2023/07/03 07:11:01;;;;;;;7.45;1.80;;;19.20;99.90;;;;;;4860469;29;20049;-75
2023/07/03 07:13:27;;;;;;;7.22;1.30;;;19.10;99.90;;;;;;4860043;29;20061;-73
2023/07/03 07:15:52;;;;;;;11.60;2.30;;;19.00;99.90;;;;;;4861081;29;20074;-74
2023/07/03 07:18:18;;;;;;;8.98;1.98;;;19.00;99.90;;;;;;4860072;29;20562;-74
2023/07/03 07:20:44;;;;;;;7.55;1.27;;;18.80;99.90;;;;;;4861149;29;20053;-74
2023/07/03 07:23:09;;;;;;;5.57;1.65;;;18.90;99.90;;;;;;4860633;29;20101;-74
2023/07/03 07:25:35;;;;;;;6.30;2.00;;;18.90;99.90;;;;;;4860705;29;20058;-74
2023/07/03 07:28:02;;;;;;;10.40;1.92;;;18.90;99.90;;;;;;4860059;29;20057;-73
2023/07/03 07:30:28;;;;;;;7.90;1.50;;;19.00;99.90;;;;;;4859501;29;20144;-74
2023/07/03 07:32:53;;;;;;;5.53;1.58;;;18.90;99.90;;;;;;4859774;29;20136;-73
2023/07/03 07:35:19;;;;;;;8.50;1.77;;;18.80;99.90;;;;;;4860930;29;20165;-76
2023/07/03 07:37:45;;;;;;;8.55;2.05;;;18.80;99.90;;;;;;4861138;29;20057;-76
2023/07/03 07:40:11;;;;;;;3.97;1.50;;;18.80;99.90;;;;;;4859767;29;20061;-76
2023/07/03 07:42:38;;;;;;;9.18;2.00;;;18.60;99.90;;;;;;4867244;29;20060;-75
2023/07/03 07:45:06;;;;;;;6.40;2.30;;;18.50;99.90;;;;;;4881736;29;20061;-75
2023/07/03 07:47:32;;;;;;;11.18;2.33;;;18.50;99.90;;;;;;4898209;29;20061;-75
2023/07/03 07:50:00;;;;;;;11.02;1.80;;;18.70;99.90;;;;;;4898199;29;20499;-76
2023/07/03 07:52:26;;;;;;;14.30;1.80;;;18.80;99.90;;;;;;4897644;29;20057;-75
2023/07/03 07:54:56;;;;;;;9.35;2.08;;;19.00;99.90;;;;;;4880312;29;20064;-75
2023/07/03 07:57:23;;;;;;;6.25;1.92;;;19.20;99.90;;;;;;4880168;29;20052;-74
2023/07/03 07:59:48;;;;;;;6.18;1.75;;;19.30;99.90;;;;;;4897088;29;20409;-75
2023/07/03 08:02:14;;;;;;;11.18;2.00;;;19.40;99.90;;;;;;4897273;29;20051;-75
2023/07/03 08:04:40;;;;;;;12.82;2.35;;;19.50;99.90;;;;;;4880272;29;20060;-75
2023/07/03 08:07:06;;;;;;;11.68;1.95;;;19.50;99.90;;;;;;4880550;29;20052;-74
2023/07/03 08:09:31;;;;;;;16.92;2.40;;;19.70;99.90;;;;;;4879833;29;20053;-75
2023/07/03 08:12:00;;;;;;;8.90;1.70;;;19.70;99.90;;;;;;4880060;29;20048;-74
2023/07/03 08:14:26;;;;;;;21.02;1.88;;;19.70;99.90;;;;;;4880040;29;20057;-75
2023/07/03 08:16:51;;;;;;;11.25;2.67;;;19.70;99.90;;;;;;4897018;29;20049;-75
2023/07/03 08:19:17;;;;;;;5.03;1.30;;;19.80;99.90;;;;;;4879847;29;20045;-75
2023/07/03 08:21:43;;;;;;;6.35;1.30;;;19.50;99.90;;;;;;4880206;29;20064;-75
2023/07/03 08:24:09;;;;;;;9.55;1.70;;;19.70;99.90;;;;;;4880453;29;20064;-75
2023/07/03 08:26:34;;;;;;;5.32;1.30;;;19.60;99.90;;;;;;4896841;29;20056;-75
2023/07/03 08:29:00;;;;;;;7.60;1.45;;;19.70;99.90;;;;;;4896426;29;20061;-74
2023/07/03 08:31:26;;;;;;;5.07;1.50;;;19.80;99.90;;;;;;4896731;29;20064;-71
2023/07/03 08:33:52;;;;;;;4.85;1.38;;;19.90;99.90;;;;;;4896608;29;20052;-71
2023/07/03 08:36:18;;;;;;;8.02;1.20;;;20.00;99.90;;;;;;4896672;29;20413;-71
2023/07/03 08:38:43;;;;;;;7.28;1.35;;;20.10;99.90;;;;;;4896631;29;20401;-74
2023/07/03 08:41:14;;;;;;;2.90;0.95;;;20.10;99.90;;;;;;4892755;29;20091;-73
2023/07/03 08:43:46;;;;;;;8.20;1.40;;;20.10;99.90;;;;;;4867655;29;20052;-74
2023/07/03 08:46:19;;;;;;;5.47;1.30;;;20.30;99.90;;;;;;4879260;29;20048;-74
2023/07/03 08:48:45;;;;;;;;;;;20.30;99.90;;;;;;4896651;29;20244;-74
2023/07/03 08:51:18;;;;;;;5.07;1.13;;;20.30;99.90;;;;;;4879216;29;20340;-74
2023/07/03 08:53:47;;;;;;;6.78;1.52;;;20.30;99.90;;;;;;4879414;29;20053;-74
2023/07/03 08:56:20;;;;;;;4.60;1.20;;;20.50;99.90;;;;;;4877103;29;20439;-74
2023/07/03 08:58:50;;;;;;;3.70;1.00;;;20.60;99.90;;;;;;4860567;29;20139;-74
2023/07/03 09:01:51;;;;;;;5.45;1.40;;;20.70;99.90;;;;;;4847383;29;20134;-74
2023/07/03 09:04:42;;;;;;;7.03;1.17;;;20.50;99.90;;;;;;4860402;29;20120;-74
2023/07/03 09:07:16;;;;;;;4.85;1.27;;;20.50;99.90;;;;;;4860314;29;20061;-75
2023/07/03 09:10:04;;;;;;;4.03;1.00;;;20.30;99.90;;;;;;4877353;29;20109;-73
2023/07/03 09:13:00;;;;;;;7.13;1.50;;;20.40;99.90;;;;;;4860207;29;20233;-73
2023/07/03 09:15:28;;;;;;;4.10;1.40;;;20.40;99.90;;;;;;4860843;29;20385;-74
2023/07/03 09:17:58;;;;;;;4.75;1.45;;;20.40;99.90;;;;;;4876868;29;20129;-74
2023/07/03 09:20:26;;;;;;;7.50;1.27;;;20.40;99.90;;;;;;4859653;29;20417;-73
2023/07/03 09:23:00;;;;;;;8.98;1.27;;;20.40;99.90;;;;;;4860178;29;20049;-71
2023/07/03 09:25:47;;;;;;;5.57;1.33;;;20.50;99.90;;;;;;4876738;29;20569;-71
2023/07/03 09:28:13;;;;;;;8.23;1.60;;;20.40;99.90;;;;;;4860178;29;20139;-71
2023/07/03 09:30:39;;;;;;;9.75;1.73;;;20.50;99.90;;;;;;4876913;29;20139;-70
2023/07/03 09:33:09;;;;;;;7.70;1.40;;;20.50;99.90;;;;;;4876882;29;20056;-70
2023/07/03 09:35:42;;;;;;;5.97;1.42;;;20.30;99.90;;;;;;4876904;29;20057;-70
2023/07/03 09:38:17;;;;;;;11.13;1.95;;;20.20;99.90;;;;;;4860193;29;20049;-70
2023/07/03 09:40:47;;;;;;;4.78;1.35;;;20.10;99.90;;;;;;4860161;29;20121;-70
2023/07/03 09:43:24;;;;;;;11.48;1.80;;;20.20;99.90;;;;;;4867856;29;20060;-70
2023/07/03 09:46:01;;;;;;;4.82;1.73;;;20.20;99.90;;;;;;4887759;29;20061;-70
2023/07/03 09:48:30;;;;;;;9.20;1.65;;;20.10;99.90;;;;;;4877221;29;20049;-70
2023/07/03 09:50:56;;;;;;;9.02;1.60;;;20.10;99.90;;;;;;4876645;29;20095;-70
2023/07/03 09:53:26;;;;;;;7.38;1.55;;;20.00;99.90;;;;;;4860185;29;20064;-77
2023/07/03 09:55:57;;;;;;;14.07;2.33;;;20.00;99.90;;;;;;4877364;29;20049;-75
2023/07/03 09:58:25;;;;;;;6.50;1.63;;;19.90;99.90;;;;;;4878830;29;20294;-70
2023/07/03 10:00:54;;;;;;;8.90;1.40;;;19.90;99.90;;;;;;4878752;29;20052;-69
2023/07/03 10:03:29;;;;;;;10.45;1.70;;;19.80;99.90;;;;;;4881388;29;20061;-70
2023/07/03 10:05:56;;;;;;;8.50;2.10;;;19.80;99.90;;;;;;4860282;29;20101;-64
2023/07/03 10:08:25;;;;;;;6.10;1.85;;;19.70;99.90;;;;;;4876516;29;20053;-69
2023/07/03 10:10:56;;;;;;;7.30;1.70;;;19.70;99.90;;;;;;4884207;29;20052;-69
2023/07/03 10:13:24;;;;;;;7.25;1.42;;;19.80;99.90;;;;;;4860775;29;20536;-75
2023/07/03 10:15:51;;;;;;;6.60;1.63;;;19.90;99.90;;;;;;4895241;29;20057;-75
2023/07/03 10:18:30;;;;;;;8.32;1.42;;;20.00;99.90;;;;;;4864335;29;20454;-75
2023/07/03 10:20:58;;;;;;;2.88;1.20;;;20.00;99.90;;;;;;4876798;29;20394;-74
2023/07/03 10:23:27;;;;;;;3.70;1.38;;;20.00;99.90;;;;;;4872718;29;20073;-75
2023/07/03 10:26:04;;;;;;;6.70;1.48;;;19.80;99.90;;;;;;4895279;29;20056;-75
2023/07/03 10:28:38;;;;;;;9.75;1.95;;;19.90;99.90;;;;;;4878487;29;20065;-76
2023/07/03 10:31:11;;;;;;;5.30;1.20;;;20.00;99.90;;;;;;4896264;29;20119;-76
2023/07/03 10:33:44;;;;;;;6.20;1.38;;;20.10;99.90;;;;;;4899030;29;20057;-76
2023/07/03 10:36:17;;;;;;;3.85;1.23;;;20.10;99.90;;;;;;4899556;29;20409;-75
2023/07/03 10:39:01;;;;;;;4.72;1.00;;;20.00;99.90;;;;;;4899017;29;20051;-76
2023/07/03 10:41:38;;;;;;;3.42;1.35;;;20.10;99.90;;;;;;4882042;29;20052;-75
2023/07/03 10:44:11;;;;;;;5.22;1.30;;;20.10;99.90;;;;;;4875277;29;20065;-75
2023/07/03 10:46:47;;;;;;;8.07;1.25;;;20.10;99.90;;;;;;4874447;29;20087;-75
2023/07/03 10:49:25;;;;;;;6.43;1.40;;;20.30;99.90;;;;;;4874918;29;20136;-76
2023/07/03 10:52:10;;;;;;;5.80;1.40;;;20.30;99.90;;;;;;4889096;29;20075;-75
2023/07/03 10:54:38;;;;;;;6.85;1.63;;;20.50;99.90;;;;;;4873111;29;20132;-75
2023/07/03 10:57:07;;;;;;;3.10;1.08;;;20.50;99.90;;;;;;4870775;29;20049;-75
2023/07/03 10:59:41;;;;;;;4.75;1.25;;;20.50;99.90;;;;;;4873081;29;20056;-75
2023/07/03 11:02:32;;;;;;;5.53;1.15;;;20.60;99.90;;;;;;4890510;29;20040;-75
2023/07/03 11:05:25;;;;;;;6.28;1.33;;;20.70;99.90;;;;;;4873682;29;20061;-75
2023/07/03 11:08:06;;;;;;;5.75;1.20;;;20.70;99.90;;;;;;4878166;29;20052;-75
2023/07/03 11:10:53;;;;;;;7.00;1.13;;;20.70;99.90;;;;;;4880646;29;20412;-75
2023/07/03 11:13:38;;;;;;;5.43;1.50;;;20.80;99.90;;;;;;4877441;29;20052;-75
2023/07/03 11:16:14;;;;;;;5.55;0.90;;;20.70;99.90;;;;;;4871910;29;20053;-75
2023/07/03 11:18:48;;;;;;;5.32;1.23;;;20.80;99.90;;;;;;4896558;29;20811;-75
2023/07/03 11:21:47;;;;;;;4.57;1.25;;;20.70;99.60;;;;;;4878793;29;20056;-71
2023/07/03 11:24:22;;;;;;;3.67;1.30;;;20.80;99.80;;;;;;4881832;29;20567;-76
2023/07/03 11:27:07;;;;;;;8.38;1.75;;;21.10;99.80;;;;;;4898708;29;20398;-76
2023/07/03 11:29:34;;;;;;;5.65;1.10;;;21.10;99.90;;;;;;4898645;29;20511;-76
2023/07/03 11:32:03;;;;;;;6.82;1.35;;;21.20;99.90;;;;;;4898466;29;20070;-76
2023/07/03 11:34:30;;;;;;;4.68;1.23;;;21.20;99.90;;;;;;4881702;29;20716;-77
2023/07/03 11:36:55;;;;;;;13.50;1.30;;;21.30;99.60;;;;;;4881574;29;20082;-76
2023/07/03 11:39:24;;;;;;;3.30;0.95;;;21.30;99.90;;;;;;4881756;29;20048;-77
2023/07/03 11:41:51;;;;;;;8.13;1.27;;;21.20;99.70;;;;;;4898422;29;20059;-76
2023/07/03 11:44:32;;;;;;;9.63;1.58;;;21.20;99.90;;;;;;4880345;29;20578;-76
2023/07/03 11:47:03;;;;;;;3.97;1.02;;;21.40;99.60;;;;;;4881880;29;20064;-76
2023/07/03 11:49:37;;;;;;;7.20;1.20;;;21.10;99.70;;;;;;4881563;29;20060;-77
2023/07/03 11:52:06;;;;;;;5.97;1.23;;;21.10;99.90;;;;;;4881649;29;20080;-76
2023/07/03 11:54:36;;;;;;;8.52;0.90;;;21.20;99.90;;;;;;4881580;29;20052;-76
2023/07/03 11:57:06;;;;;;;7.13;1.17;;;21.30;99.90;;;;;;4899666;29;20529;-76
2023/07/03 11:59:37;;;;;;;4.63;1.02;;;21.20;99.90;;;;;;4898576;29;20055;-76
2023/07/03 12:02:16;;;;;;;4.53;1.17;;;21.10;99.90;;;;;;4881380;29;20152;-77
2023/07/03 12:04:45;;;;;;;16.25;1.95;;;21.00;99.80;;;;;;4881331;29;20060;-76
2023/07/03 12:07:30;;;;;;;5.47;1.08;;;21.10;99.90;;;;;;4895076;29;20144;-76
2023/07/03 12:10:35;;;;;;;5.43;1.20;;;21.10;99.90;;;;;;4871843;29;20112;-76
2023/07/03 12:13:28;;;;;;;9.20;1.27;;;21.30;99.90;;;;;;4870237;29;20053;-76
2023/07/03 12:15:59;;;;;;;3.88;1.27;;;21.30;98.80;;;;;;4897706;29;20143;-77
2023/07/03 12:18:25;;;;;;;5.43;1.30;;;21.10;99.30;;;;;;4880895;29;20052;-78
2023/07/03 12:20:59;;;;;;;3.88;1.20;;;21.20;98.90;;;;;;4897180;29;20453;-75
2023/07/03 12:23:36;;;;;;;3.10;0.90;;;21.10;98.60;;;;;;4880462;29;20048;-75
2023/07/03 12:26:04;;;;;;;2.60;0.95;;;21.00;98.70;;;;;;4897195;29;20049;-74
2023/07/03 12:28:29;;;;;;;9.38;0.90;;;20.90;99.00;;;;;;4880596;29;20057;-75
2023/07/03 12:31:22;;;;;;;5.25;1.38;;;21.00;99.20;;;;;;4897322;29;20468;-75
2023/07/03 12:33:52;;;;;;;;;;;20.90;99.10;;;;;;4880724;29;20052;-76
2023/07/03 12:36:26;;;;;;;5.22;1.10;;;20.90;98.80;;;;;;4880219;29;20379;-75
2023/07/03 12:38:52;;;;;;;4.50;1.20;;;20.90;99.10;;;;;;4880291;29;20059;-75
2023/07/03 12:41:29;;;;;;;3.03;1.08;;;20.70;99.60;;;;;;4880301;29;20076;-75
2023/07/03 12:43:55;;;;;;;6.40;1.30;;;20.70;99.60;;;;;;4880239;29;20095;-75
2023/07/03 12:46:26;;;;;;;11.48;1.25;;;20.50;99.20;;;;;;4897230;29;20103;-76
2023/07/03 12:49:11;;;;;;;6.10;1.30;;;20.40;99.70;;;;;;4896744;29;20044;-76
2023/07/03 12:51:51;;;;;;;8.90;1.40;;;20.50;99.00;;;;;;4860928;29;20048;-76